Observations for Trim Market St
| Time | AQI | Temp °C | Hum % | Pres Pa | CO μg/m³ | H₂S μg/m³ | NO μg/m³ | NO₂ μg/m³ | O₃ μg/m³ | SO₂ μg/m³ | PM1 μg/m³ | PM2.5 μg/m³ | PM10 μg/m³ |
|---|---|---|---|---|---|---|---|---|---|---|---|---|---|
| Friday 10 July 2026 | |||||||||||||
| 06:40 | 1 | 18.3 | 77 | 4,851 | 0.2 | 0 | 1.92 | 4.55 | 7.48 | 0 | 4.99 | 6.52 | 9.87 |
| 06:39 | 1 | 18.3 | 77 | 3,902 | 0.18 | 0 | 0 | 4.34 | 3.55 | 0 | 4.28 | 6.52 | 11.62 |
| 06:38 | 1 | 18.3 | 77 | 2,965 | 0.18 | 0 | 0 | 5.13 | 2.26 | 0 | 5.7 | 7.94 | 11.61 |
| 06:37 | 1 | 18.2 | 78 | 2,149 | 0.18 | 0 | 0.4 | 1.24 | 2.7 | 0 | 4.28 | 6.5 | 11.61 |
| 06:36 | 1 | 18.2 | 78 | 1,084 | 0.2 | 0 | 0.89 | 4.13 | 6.43 | 0 | 3.56 | 5.55 | 9.28 |
| 06:35 | 1 | 18.2 | 78 | 2,147,483,647 | 0.21 | 0 | 1.13 | 5.02 | 5.64 | 0 | 5.7 | 7.92 | 11.6 |
| 06:34 | 1 | 18.1 | 78 | 2,147,483,647 | 0.33 | 0 | 0 | 3.74 | 8.1 | 0 | 4.99 | 7.44 | 11.6 |
| 06:33 | 1 | 18.1 | 78 | 2,147,483,647 | 0.33 | 0 | 3.72 | 6.43 | 4.81 | 0 | 5.7 | 7.44 | 11.59 |
| 06:32 | 1 | 18.1 | 78 | 2,147,483,647 | 0.42 | 0 | 0 | 4.92 | 6.9 | 0 | 4.99 | 6.95 | 10.43 |
| 06:30 | 1 | 18 | 78 | 2,147,483,647 | 0.53 | 0 | 0 | 7.24 | 4.01 | 0 | 4.99 | 8.37 | 12.74 |
| 06:26 | 1 | 17.8 | 78 | 2,147,483,647 | 0.19 | 0 | 0 | 5.16 | 7.99 | 0 | 3.56 | 5.03 | 9.26 |
| 06:24 | 1 | 17.7 | 78 | 2,147,483,647 | 0.17 | 0 | 0.14 | 4.06 | 7.58 | 0 | 4.99 | 7.39 | 10.99 |
| 06:21 | 1 | 17.6 | 79 | 2,147,483,647 | 0.16 | 0 | 0 | 5.07 | 3.52 | 0 | 4.99 | 8.33 | 12.13 |
| 06:15 | 1 | 17.3 | 79 | 2,147,483,647 | 0.15 | 0 | 0 | 2.3 | 8.61 | 0 | 4.99 | 7.83 | 12.11 |
| 06:14 | 1 | 17.3 | 79 | 2,147,483,647 | 0.14 | 0 | 0 | 2.9 | 7.38 | 0 | 4.99 | 9.72 | 13.83 |
| 06:13 | 1 | 17.3 | 79 | 2,147,483,647 | 0.14 | 0 | 0.34 | 3.29 | 6.09 | 0 | 4.99 | 6.88 | 10.96 |
| 06:12 | 1 | 17.3 | 79 | 2,147,483,647 | 0.14 | 0 | 0 | 2.88 | 4.47 | 0 | 2.85 | 5.93 | 9.82 |
| 06:10 | 1 | 17.2 | 80 | 2,147,483,647 | 0.26 | 0 | 0 | 2.78 | 7.76 | 0 | 4.28 | 6.86 | 11.52 |
| 06:09 | 1 | 17.2 | 80 | 2,147,483,647 | 0.14 | 0 | 0 | 2.77 | 5.28 | 0 | 4.28 | 6.38 | 9.81 |
| 06:08 | 1 | 17.2 | 80 | 2,147,483,647 | 0.17 | 0 | 2.05 | 2.07 | 5.68 | 0 | 5.7 | 7.33 | 10.95 |